sensor_id;sensor_type;location;lat;lon;timestamp;pressure;altitude;pressure_sealevel;temperature;humidity
14800;BME280;7491;57.750;11.970;2022-12-18T00:01:16;77474.69;;;-142.11;100.00
14800;BME280;7491;57.750;11.970;2022-12-18T00:03:43;77482.84;;;-142.11;100.00
14800;BME280;7491;57.750;11.970;2022-12-18T00:06:11;77486.91;;;-142.11;100.00
14800;BME280;7491;57.750;11.970;2022-12-18T00:08:39;77499.16;;;-142.11;100.00
14800;BME280;7491;57.750;11.970;2022-12-18T00:11:06;77529.72;;;-142.11;100.00
14800;BME280;7491;57.750;11.970;2022-12-18T00:13:34;77509.34;;;-142.11;100.00
14800;BME280;7491;57.750;11.970;2022-12-18T00:16:02;77511.38;;;-142.11;100.00
14800;BME280;7491;57.750;11.970;2022-12-18T00:18:31;77523.63;;;-142.11;100.00
14800;BME280;7491;57.750;11.970;2022-12-18T00:20:58;77525.66;;;-142.11;100.00
14800;BME280;7491;57.750;11.970;2022-12-18T00:23:25;77523.63;;;-142.11;100.00
14800;BME280;7491;57.750;11.970;2022-12-18T00:25:52;77531.78;;;-142.11;100.00
14800;BME280;7491;57.750;11.970;2022-12-18T00:28:19;77539.94;;;-142.11;100.00
14800;BME280;7491;57.750;11.970;2022-12-18T00:30:46;77541.97;;;-142.11;100.00
14800;BME280;7491;57.750;11.970;2022-12-18T00:33:12;77531.78;;;-142.11;100.00
14800;BME280;7491;57.750;11.970;2022-12-18T00:35:40;77539.94;;;-142.11;100.00
14800;BME280;7491;57.750;11.970;2022-12-18T00:38:07;77562.38;;;-142.11;100.00
14800;BME280;7491;57.750;11.970;2022-12-18T00:40:34;77548.09;;;-142.11;100.00
14800;BME280;7491;57.750;11.970;2022-12-18T00:43:00;77548.09;;;-142.11;100.00
14800;BME280;7491;57.750;11.970;2022-12-18T00:45:27;77550.13;;;-142.11;100.00
14800;BME280;7491;57.750;11.970;2022-12-18T00:47:55;77558.28;;;-142.11;100.00
14800;BME280;7491;57.750;11.970;2022-12-18T00:50:24;77544.00;;;-142.11;100.00
14800;BME280;7491;57.750;11.970;2022-12-18T00:52:52;77564.41;;;-142.11;100.00
14800;BME280;7491;57.750;11.970;2022-12-18T00:55:19;77566.44;;;-142.11;100.00
14800;BME280;7491;57.750;11.970;2022-12-18T00:57:45;77566.44;;;-142.11;100.00
14800;BME280;7491;57.750;11.970;2022-12-18T01:00:14;77582.75;;;-142.11;100.00
14800;BME280;7491;57.750;11.970;2022-12-18T01:02:41;77578.69;;;-142.11;100.00
14800;BME280;7491;57.750;11.970;2022-12-18T01:05:09;77580.72;;;-142.11;100.00
14800;BME280;7491;57.750;11.970;2022-12-18T01:07:36;77570.53;;;-142.11;100.00
14800;BME280;7491;57.750;11.970;2022-12-18T01:10:05;77582.75;;;-142.11;100.00
14800;BME280;7491;57.750;11.970;2022-12-18T01:12:32;77570.53;;;-142.11;100.00
14800;BME280;7491;57.750;11.970;2022-12-18T01:14:59;77580.72;;;-142.11;100.00
14800;BME280;7491;57.750;11.970;2022-12-18T01:17:26;77584.78;;;-142.11;100.00
14800;BME280;7491;57.750;11.970;2022-12-18T01:19:53;77574.59;;;-142.11;100.00
14800;BME280;7491;57.750;11.970;2022-12-18T01:22:19;77580.72;;;-142.11;100.00
14800;BME280;7491;57.750;11.970;2022-12-18T01:24:46;77584.78;;;-142.11;100.00
14800;BME280;7491;57.750;11.970;2022-12-18T01:27:14;77590.91;;;-142.11;100.00
14800;BME280;7491;57.750;11.970;2022-12-18T01:29:41;77599.06;;;-142.11;100.00
14800;BME280;7491;57.750;11.970;2022-12-18T01:32:08;77601.13;;;-142.11;100.00
14800;BME280;7491;57.750;11.970;2022-12-18T01:34:35;77584.78;;;-142.11;100.00
14800;BME280;7491;57.750;11.970;2022-12-18T01:37:02;77584.78;;;-142.11;100.00
14800;BME280;7491;57.750;11.970;2022-12-18T01:39:29;77599.06;;;-142.11;100.00
14800;BME280;7491;57.750;11.970;2022-12-18T01:41:57;77599.06;;;-142.11;100.00
14800;BME280;7491;57.750;11.970;2022-12-18T01:45:04;77601.13;;;-142.11;100.00
14800;BME280;7491;57.750;11.970;2022-12-18T01:47:35;77590.91;;;-142.11;100.00
14800;BME280;7491;57.750;11.970;2022-12-18T01:50:07;77592.94;;;-142.11;100.00
14800;BME280;7491;57.750;11.970;2022-12-18T01:52:34;77595.00;;;-142.11;100.00
14800;BME280;7491;57.750;11.970;2022-12-18T01:55:04;77599.06;;;-142.11;100.00
14800;BME280;7491;57.750;11.970;2022-12-18T01:57:31;77588.88;;;-142.11;100.00
14800;BME280;7491;57.750;11.970;2022-12-18T02:00:01;77592.94;;;-142.11;100.00
14800;BME280;7491;57.750;11.970;2022-12-18T02:02:30;77590.91;;;-142.11;100.00
14800;BME280;7491;57.750;11.970;2022-12-18T02:04:57;77582.75;;;-142.11;100.00
14800;BME280;7491;57.750;11.970;2022-12-18T02:07:32;77597.03;;;-142.11;100.00
14800;BME280;7491;57.750;11.970;2022-12-18T02:10:05;77588.88;;;-142.11;100.00
14800;BME280;7491;57.750;11.970;2022-12-18T02:12:42;77590.91;;;-142.11;100.00
14800;BME280;7491;57.750;11.970;2022-12-18T02:15:13;77578.69;;;-142.11;100.00
14800;BME280;7491;57.750;11.970;2022-12-18T02:17:48;77574.59;;;-142.11;100.00
14800;BME280;7491;57.750;11.970;2022-12-18T02:20:20;77562.38;;;-142.11;100.00
14800;BME280;7491;57.750;11.970;2022-12-18T02:23:01;77560.31;;;-142.11;100.00
14800;BME280;7491;57.750;11.970;2022-12-18T02:28:16;77531.78;;;-142.11;100.00
14800;BME280;7491;57.750;11.970;2022-12-18T02:30:47;77523.63;;;-142.11;100.00
14800;BME280;7491;57.750;11.970;2022-12-18T02:33:16;77515.47;;;-142.11;100.00
14800;BME280;7491;57.750;11.970;2022-12-18T02:35:44;77495.06;;;-142.11;100.00
14800;BME280;7491;57.750;11.970;2022-12-18T02:38:12;77503.22;;;-142.11;100.00
14800;BME280;7491;57.750;11.970;2022-12-18T02:40:40;77480.78;;;-142.11;100.00
14800;BME280;7491;57.750;11.970;2022-12-18T02:43:09;77476.72;;;-142.11;100.00
14800;BME280;7491;57.750;11.970;2022-12-18T02:45:46;77482.84;;;-142.11;100.00
14800;BME280;7491;57.750;11.970;2022-12-18T02:48:13;77478.75;;;-142.11;100.00
14800;BME280;7491;57.750;11.970;2022-12-18T02:50:45;77476.72;;;-142.11;100.00
14800;BME280;7491;57.750;11.970;2022-12-18T02:53:18;77462.44;;;-142.11;100.00
14800;BME280;7491;57.750;11.970;2022-12-18T02:55:58;77462.44;;;-142.11;100.00
14800;BME280;7491;57.750;11.970;2022-12-18T02:58:30;77472.63;;;-142.11;100.00
14800;BME280;7491;57.750;11.970;2022-12-18T03:01:04;77482.84;;;-142.11;100.00
14800;BME280;7491;57.750;11.970;2022-12-18T03:03:36;77484.88;;;-142.11;100.00
14800;BME280;7491;57.750;11.970;2022-12-18T03:06:08;77491.00;;;-142.11;100.00
14800;BME280;7491;57.750;11.970;2022-12-18T03:08:39;77460.41;;;-142.11;100.00
14800;BME280;7491;57.750;11.970;2022-12-18T03:11:10;77478.75;;;-142.11;100.00
14800;BME280;7491;57.750;11.970;2022-12-18T03:13:40;77484.88;;;-142.11;100.00
14800;BME280;7491;57.750;11.970;2022-12-18T03:16:15;77478.75;;;-142.11;100.00
14800;BME280;7491;57.750;11.970;2022-12-18T03:18:47;77488.94;;;-142.11;100.00
14800;BME280;7491;57.750;11.970;2022-12-18T03:21:18;77488.94;;;-142.11;100.00
14800;BME280;7491;57.750;11.970;2022-12-18T03:23:49;77484.88;;;-142.11;100.00
14800;BME280;7491;57.750;11.970;2022-12-18T03:26:21;77486.91;;;-142.11;100.00
14800;BME280;7491;57.750;11.970;2022-12-18T03:28:51;77462.44;;;-142.11;100.00
14800;BME280;7491;57.750;11.970;2022-12-18T03:31:23;77482.84;;;-142.11;100.00
14800;BME280;7491;57.750;11.970;2022-12-18T03:33:52;77474.69;;;-142.11;100.00
14800;BME280;7491;57.750;11.970;2022-12-18T03:36:19;77474.69;;;-142.11;100.00
14800;BME280;7491;57.750;11.970;2022-12-18T03:38:46;77484.88;;;-142.11;100.00
14800;BME280;7491;57.750;11.970;2022-12-18T03:41:18;77482.84;;;-142.11;100.00
14800;BME280;7491;57.750;11.970;2022-12-18T03:43:49;77470.59;;;-142.11;100.00
14800;BME280;7491;57.750;11.970;2022-12-18T03:46:26;77488.94;;;-142.11;100.00
14800;BME280;7491;57.750;11.970;2022-12-18T03:48:59;77488.94;;;-142.11;100.00
14800;BME280;7491;57.750;11.970;2022-12-18T03:51:32;77480.78;;;-142.11;100.00
14800;BME280;7491;57.750;11.970;2022-12-18T03:54:05;77482.84;;;-142.11;100.00
14800;BME280;7491;57.750;11.970;2022-12-18T03:56:37;77493.03;;;-142.11;100.00
14800;BME280;7491;57.750;11.970;2022-12-18T03:59:06;77484.88;;;-142.11;100.00
14800;BME280;7491;57.750;11.970;2022-12-18T04:01:39;77495.06;;;-142.11;100.00
14800;BME280;7491;57.750;11.970;2022-12-18T04:04:08;77495.06;;;-142.11;100.00
14800;BME280;7491;57.750;11.970;2022-12-18T04:06:37;77495.06;;;-142.11;100.00
14800;BME280;7491;57.750;11.970;2022-12-18T04:09:05;77484.88;;;-142.11;100.00
14800;BME280;7491;57.750;11.970;2022-12-18T04:11:32;77491.00;;;-142.11;100.00
14800;BME280;7491;57.750;11.970;2022-12-18T04:13:59;77497.09;;;-142.11;100.00
14800;BME280;7491;57.750;11.970;2022-12-18T04:16:26;77495.06;;;-142.11;100.00
14800;BME280;7491;57.750;11.970;2022-12-18T04:18:55;77499.16;;;-142.11;100.00
14800;BME280;7491;57.750;11.970;2022-12-18T04:21:21;77503.22;;;-142.11;100.00
14800;BME280;7491;57.750;11.970;2022-12-18T04:23:48;77501.19;;;-142.11;100.00
14800;BME280;7491;57.750;11.970;2022-12-18T04:26:15;77491.00;;;-142.11;100.00
14800;BME280;7491;57.750;11.970;2022-12-18T04:28:41;77491.00;;;-142.11;100.00
14800;BME280;7491;57.750;11.970;2022-12-18T04:31:08;77497.09;;;-142.11;100.00
14800;BME280;7491;57.750;11.970;2022-12-18T04:33:35;77503.22;;;-142.11;100.00
14800;BME280;7491;57.750;11.970;2022-12-18T04:36:04;77503.22;;;-142.11;100.00
14800;BME280;7491;57.750;11.970;2022-12-18T04:38:31;77501.19;;;-142.11;100.00
14800;BME280;7491;57.750;11.970;2022-12-18T04:40:58;77501.19;;;-142.11;100.00
14800;BME280;7491;57.750;11.970;2022-12-18T04:43:24;77501.19;;;-142.11;100.00
14800;BME280;7491;57.750;11.970;2022-12-18T04:45:51;77491.00;;;-142.11;100.00
14800;BME280;7491;57.750;11.970;2022-12-18T04:48:17;77484.88;;;-142.11;100.00
14800;BME280;7491;57.750;11.970;2022-12-18T04:50:46;77499.16;;;-142.11;100.00
14800;BME280;7491;57.750;11.970;2022-12-18T04:53:14;77493.03;;;-142.11;100.00
14800;BME280;7491;57.750;11.970;2022-12-18T04:55:41;77499.16;;;-142.11;100.00
14800;BME280;7491;57.750;11.970;2022-12-18T04:58:07;77493.03;;;-142.11;100.00
14800;BME280;7491;57.750;11.970;2022-12-18T05:00:34;77497.09;;;-142.11;100.00
14800;BME280;7491;57.750;11.970;2022-12-18T05:03:01;77493.03;;;-142.11;100.00
14800;BME280;7491;57.750;11.970;2022-12-18T05:05:28;77511.38;;;-142.11;100.00
14800;BME280;7491;57.750;11.970;2022-12-18T05:07:55;77493.03;;;-142.11;100.00
14800;BME280;7491;57.750;11.970;2022-12-18T05:10:23;77501.19;;;-142.11;100.00
14800;BME280;7491;57.750;11.970;2022-12-18T05:12:49;77505.25;;;-142.11;100.00
14800;BME280;7491;57.750;11.970;2022-12-18T05:15:27;77501.19;;;-142.11;100.00
14800;BME280;7491;57.750;11.970;2022-12-18T05:17:53;77497.09;;;-142.11;100.00
14800;BME280;7491;57.750;11.970;2022-12-18T05:20:20;77497.09;;;-142.11;100.00
14800;BME280;7491;57.750;11.970;2022-12-18T05:22:47;77491.00;;;-142.11;100.00
14800;BME280;7491;57.750;11.970;2022-12-18T05:25:14;77495.06;;;-142.11;100.00
14800;BME280;7491;57.750;11.970;2022-12-18T05:27:42;77499.16;;;-142.11;100.00
14800;BME280;7491;57.750;11.970;2022-12-18T05:30:10;77509.34;;;-142.11;100.00
14800;BME280;7491;57.750;11.970;2022-12-18T05:32:37;77505.25;;;-142.11;100.00
14800;BME280;7491;57.750;11.970;2022-12-18T05:35:05;77509.34;;;-142.11;100.00
14800;BME280;7491;57.750;11.970;2022-12-18T05:37:32;77497.09;;;-142.11;100.00
14800;BME280;7491;57.750;11.970;2022-12-18T05:39:59;77497.09;;;-142.11;100.00
14800;BME280;7491;57.750;11.970;2022-12-18T05:42:25;77491.00;;;-142.11;100.00
14800;BME280;7491;57.750;11.970;2022-12-18T05:44:53;77511.38;;;-142.11;100.00
14800;BME280;7491;57.750;11.970;2022-12-18T05:47:20;77497.09;;;-142.11;100.00
14800;BME280;7491;57.750;11.970;2022-12-18T05:49:47;77491.00;;;-142.11;100.00
14800;BME280;7491;57.750;11.970;2022-12-18T05:52:14;77501.19;;;-142.11;100.00
14800;BME280;7491;57.750;11.970;2022-12-18T05:54:41;77495.06;;;-142.11;100.00
14800;BME280;7491;57.750;11.970;2022-12-18T05:57:07;77482.84;;;-142.11;100.00
14800;BME280;7491;57.750;11.970;2022-12-18T05:59:34;77474.69;;;-142.11;100.00
14800;BME280;7491;57.750;11.970;2022-12-18T06:02:02;77482.84;;;-142.11;100.00
14800;BME280;7491;57.750;11.970;2022-12-18T06:04:29;77476.72;;;-142.11;100.00
14800;BME280;7491;57.750;11.970;2022-12-18T06:06:57;77491.00;;;-142.11;100.00
14800;BME280;7491;57.750;11.970;2022-12-18T06:09:24;77486.91;;;-142.11;100.00
14800;BME280;7491;57.750;11.970;2022-12-18T06:11:51;77488.94;;;-142.11;100.00
14800;BME280;7491;57.750;11.970;2022-12-18T06:14:18;77505.25;;;-142.11;100.00
14800;BME280;7491;57.750;11.970;2022-12-18T06:16:45;77499.16;;;-142.11;100.00
14800;BME280;7491;57.750;11.970;2022-12-18T06:19:16;77482.84;;;-142.11;100.00
14800;BME280;7491;57.750;11.970;2022-12-18T06:21:43;77495.06;;;-142.11;100.00
14800;BME280;7491;57.750;11.970;2022-12-18T06:24:10;77509.34;;;-142.11;100.00
14800;BME280;7491;57.750;11.970;2022-12-18T06:26:38;77484.88;;;-142.11;100.00
14800;BME280;7491;57.750;11.970;2022-12-18T06:29:05;77499.16;;;-142.11;100.00
14800;BME280;7491;57.750;11.970;2022-12-18T06:31:32;77499.16;;;-142.11;100.00
14800;BME280;7491;57.750;11.970;2022-12-18T06:34:02;77482.84;;;-142.11;100.00
14800;BME280;7491;57.750;11.970;2022-12-18T06:36:30;77472.63;;;-142.11;100.00
14800;BME280;7491;57.750;11.970;2022-12-18T06:38:57;77488.94;;;-142.11;100.00
14800;BME280;7491;57.750;11.970;2022-12-18T06:41:24;77491.00;;;-142.11;100.00
14800;BME280;7491;57.750;11.970;2022-12-18T06:43:51;77495.06;;;-142.11;100.00
14800;BME280;7491;57.750;11.970;2022-12-18T06:46:17;77493.03;;;-142.11;100.00
14800;BME280;7491;57.750;11.970;2022-12-18T06:48:47;77484.88;;;-142.11;100.00
14800;BME280;7491;57.750;11.970;2022-12-18T06:51:16;77486.91;;;-142.11;100.00
14800;BME280;7491;57.750;11.970;2022-12-18T06:53:44;77499.16;;;-142.11;100.00
14800;BME280;7491;57.750;11.970;2022-12-18T06:56:11;77488.94;;;-142.11;100.00
14800;BME280;7491;57.750;11.970;2022-12-18T06:58:38;77493.03;;;-142.11;100.00
14800;BME280;7491;57.750;11.970;2022-12-18T07:01:07;77499.16;;;-142.11;100.00
14800;BME280;7491;57.750;11.970;2022-12-18T07:03:34;77497.09;;;-142.11;100.00
14800;BME280;7491;57.750;11.970;2022-12-18T07:06:01;77493.03;;;-142.11;100.00
14800;BME280;7491;57.750;11.970;2022-12-18T07:08:28;77480.78;;;-142.11;100.00
14800;BME280;7491;57.750;11.970;2022-12-18T07:10:56;77495.06;;;-142.11;100.00
14800;BME280;7491;57.750;11.970;2022-12-18T07:13:23;77491.00;;;-142.11;100.00
14800;BME280;7491;57.750;11.970;2022-12-18T07:15:50;77495.06;;;-142.11;100.00
14800;BME280;7491;57.750;11.970;2022-12-18T07:18:17;77495.06;;;-142.11;100.00
14800;BME280;7491;57.750;11.970;2022-12-18T07:20:43;77495.06;;;-142.11;100.00
14800;BME280;7491;57.750;11.970;2022-12-18T07:23:10;77507.31;;;-142.11;100.00
14800;BME280;7491;57.750;11.970;2022-12-18T07:25:37;77507.31;;;-142.11;100.00
14800;BME280;7491;57.750;11.970;2022-12-18T07:28:06;77503.22;;;-142.11;100.00
14800;BME280;7491;57.750;11.970;2022-12-18T07:30:32;77501.19;;;-142.11;100.00
14800;BME280;7491;57.750;11.970;2022-12-18T07:32:59;77509.34;;;-142.11;100.00
14800;BME280;7491;57.750;11.970;2022-12-18T07:35:26;77513.41;;;-142.11;100.00
14800;BME280;7491;57.750;11.970;2022-12-18T07:37:53;77511.38;;;-142.11;100.00
14800;BME280;7491;57.750;11.970;2022-12-18T07:40:19;77503.22;;;-142.11;100.00
14800;BME280;7491;57.750;11.970;2022-12-18T07:42:46;77503.22;;;-142.11;100.00
14800;BME280;7491;57.750;11.970;2022-12-18T07:45:14;77521.56;;;-142.11;100.00
14800;BME280;7491;57.750;11.970;2022-12-18T07:47:41;77511.38;;;-142.11;100.00
14800;BME280;7491;57.750;11.970;2022-12-18T07:50:08;77503.22;;;-142.11;100.00
14800;BME280;7491;57.750;11.970;2022-12-18T07:52:35;77509.34;;;-142.11;100.00
14800;BME280;7491;57.750;11.970;2022-12-18T07:55:02;77507.31;;;-142.11;100.00
14800;BME280;7491;57.750;11.970;2022-12-18T07:57:29;77505.25;;;-142.11;100.00
14800;BME280;7491;57.750;11.970;2022-12-18T07:59:56;77495.06;;;-142.11;100.00
14800;BME280;7491;57.750;11.970;2022-12-18T08:02:24;77497.09;;;-142.11;100.00
14800;BME280;7491;57.750;11.970;2022-12-18T08:04:51;77513.41;;;-142.11;100.00
14800;BME280;7491;57.750;11.970;2022-12-18T08:07:17;77513.41;;;-142.11;100.00
14800;BME280;7491;57.750;11.970;2022-12-18T08:09:44;77525.66;;;-142.11;100.00
14800;BME280;7491;57.750;11.970;2022-12-18T08:12:11;77517.50;;;-142.11;100.00
14800;BME280;7491;57.750;11.970;2022-12-18T08:14:38;77523.63;;;-142.11;100.00
14800;BME280;7491;57.750;11.970;2022-12-18T08:17:04;77521.56;;;-142.11;100.00
14800;BME280;7491;57.750;11.970;2022-12-18T08:19:33;77527.69;;;-142.11;100.00
14800;BME280;7491;57.750;11.970;2022-12-18T08:21:59;77527.69;;;-142.11;100.00
14800;BME280;7491;57.750;11.970;2022-12-18T08:24:26;77525.66;;;-142.11;100.00
14800;BME280;7491;57.750;11.970;2022-12-18T08:26:53;77521.56;;;-142.11;100.00
14800;BME280;7491;57.750;11.970;2022-12-18T08:29:20;77515.47;;;-142.11;100.00
14800;BME280;7491;57.750;11.970;2022-12-18T08:31:48;77519.53;;;-142.11;100.00
14800;BME280;7491;57.750;11.970;2022-12-18T08:34:15;77519.53;;;-142.11;100.00
14800;BME280;7491;57.750;11.970;2022-12-18T08:36:43;77523.63;;;-142.11;100.00
14800;BME280;7491;57.750;11.970;2022-12-18T08:39:09;77531.78;;;-142.11;100.00
14800;BME280;7491;57.750;11.970;2022-12-18T08:41:36;77533.81;;;-142.11;100.00
14800;BME280;7491;57.750;11.970;2022-12-18T08:44:03;77533.81;;;-142.11;100.00
14800;BME280;7491;57.750;11.970;2022-12-18T08:46:47;77525.66;;;-142.11;100.00
14800;BME280;7491;57.750;11.970;2022-12-18T08:49:14;77525.66;;;-142.11;100.00
14800;BME280;7491;57.750;11.970;2022-12-18T08:51:42;77541.97;;;-142.11;100.00
14800;BME280;7491;57.750;11.970;2022-12-18T08:54:11;77539.94;;;-142.11;100.00
14800;BME280;7491;57.750;11.970;2022-12-18T08:56:39;77546.06;;;-142.11;100.00
14800;BME280;7491;57.750;11.970;2022-12-18T08:59:05;77541.97;;;-142.11;100.00
14800;BME280;7491;57.750;11.970;2022-12-18T09:01:32;77548.09;;;-142.11;100.00
14800;BME280;7491;57.750;11.970;2022-12-18T09:03:59;77546.06;;;-142.11;100.00
14800;BME280;7491;57.750;11.970;2022-12-18T09:06:25;77552.16;;;-142.11;100.00
14800;BME280;7491;57.750;11.970;2022-12-18T09:08:54;77552.16;;;-142.11;100.00
14800;BME280;7491;57.750;11.970;2022-12-18T09:11:22;77541.97;;;-142.11;100.00
14800;BME280;7491;57.750;11.970;2022-12-18T09:13:52;77556.25;;;-142.11;100.00
14800;BME280;7491;57.750;11.970;2022-12-18T09:16:23;77554.22;;;-142.11;100.00
14800;BME280;7491;57.750;11.970;2022-12-18T09:18:51;77548.09;;;-142.11;100.00
14800;BME280;7491;57.750;11.970;2022-12-18T09:21:23;77552.16;;;-142.11;100.00
14800;BME280;7491;57.750;11.970;2022-12-18T09:23:51;77544.00;;;-142.11;100.00
14800;BME280;7491;57.750;11.970;2022-12-18T09:26:19;77541.97;;;-142.11;100.00
14800;BME280;7491;57.750;11.970;2022-12-18T09:28:46;77548.09;;;-142.11;100.00
14800;BME280;7491;57.750;11.970;2022-12-18T09:31:16;77568.47;;;-142.11;100.00
14800;BME280;7491;57.750;11.970;2022-12-18T09:33:43;77546.06;;;-142.11;100.00
14800;BME280;7491;57.750;11.970;2022-12-18T09:36:12;77548.09;;;-142.11;100.00
14800;BME280;7491;57.750;11.970;2022-12-18T09:38:39;77550.13;;;-142.11;100.00
14800;BME280;7491;57.750;11.970;2022-12-18T09:41:31;77556.25;;;-142.11;100.00
14800;BME280;7491;57.750;11.970;2022-12-18T09:44:01;77550.13;;;-142.11;100.00
14800;BME280;7491;57.750;11.970;2022-12-18T09:46:32;77548.09;;;-142.11;100.00
14800;BME280;7491;57.750;11.970;2022-12-18T09:49:03;77541.97;;;-142.11;100.00
14800;BME280;7491;57.750;11.970;2022-12-18T09:51:36;77527.69;;;-142.11;100.00
14800;BME280;7491;57.750;11.970;2022-12-18T09:54:05;77529.72;;;-142.11;100.00
14800;BME280;7491;57.750;11.970;2022-12-18T09:56:40;77544.00;;;-142.11;100.00
14800;BME280;7491;57.750;11.970;2022-12-18T09:59:18;77541.97;;;-142.11;100.00
14800;BME280;7491;57.750;11.970;2022-12-18T10:01:45;77548.09;;;-142.11;100.00
14800;BME280;7491;57.750;11.970;2022-12-18T10:04:12;77541.97;;;-142.11;100.00
14800;BME280;7491;57.750;11.970;2022-12-18T10:06:43;77554.22;;;-142.11;100.00
14800;BME280;7491;57.750;11.970;2022-12-18T10:09:20;77556.25;;;-142.11;100.00
14800;BME280;7491;57.750;11.970;2022-12-18T10:12:00;77556.25;;;-142.11;100.00
14800;BME280;7491;57.750;11.970;2022-12-18T10:14:34;77552.16;;;-142.11;100.00
14800;BME280;7491;57.750;11.970;2022-12-18T10:17:12;77546.06;;;-142.11;100.00
14800;BME280;7491;57.750;11.970;2022-12-18T10:19:44;77529.72;;;-142.11;100.00
14800;BME280;7491;57.750;11.970;2022-12-18T10:22:25;77552.16;;;-142.11;100.00
14800;BME280;7491;57.750;11.970;2022-12-18T10:24:59;77560.31;;;-142.11;100.00
14800;BME280;7491;57.750;11.970;2022-12-18T10:27:29;77556.25;;;-142.11;100.00
14800;BME280;7491;57.750;11.970;2022-12-18T10:29:56;77550.13;;;-142.11;100.00
14800;BME280;7491;57.750;11.970;2022-12-18T10:32:26;77564.41;;;-142.11;100.00
14800;BME280;7491;57.750;11.970;2022-12-18T10:34:57;77568.47;;;-142.11;100.00
14800;BME280;7491;57.750;11.970;2022-12-18T10:37:26;77554.22;;;-142.11;100.00
14800;BME280;7491;57.750;11.970;2022-12-18T10:40:09;77558.28;;;-142.11;100.00
14800;BME280;7491;57.750;11.970;2022-12-18T10:42:38;77552.16;;;-142.11;100.00
14800;BME280;7491;57.750;11.970;2022-12-18T10:45:10;77556.25;;;-142.11;100.00
14800;BME280;7491;57.750;11.970;2022-12-18T10:47:42;77560.31;;;-142.11;100.00
14800;BME280;7491;57.750;11.970;2022-12-18T10:50:19;77539.94;;;-142.11;100.00
14800;BME280;7491;57.750;11.970;2022-12-18T10:52:58;77529.72;;;-142.11;100.00
14800;BME280;7491;57.750;11.970;2022-12-18T10:55:30;77525.66;;;-142.11;100.00
14800;BME280;7491;57.750;11.970;2022-12-18T10:58:28;77546.06;;;-142.11;100.00
14800;BME280;7491;57.750;11.970;2022-12-18T11:01:08;77537.91;;;-142.11;100.00
14800;BME280;7491;57.750;11.970;2022-12-18T11:03:37;77527.69;;;-142.11;100.00
14800;BME280;7491;57.750;11.970;2022-12-18T11:06:08;77531.78;;;-142.11;100.00
14800;BME280;7491;57.750;11.970;2022-12-18T11:08:35;77548.09;;;-142.11;100.00
14800;BME280;7491;57.750;11.970;2022-12-18T11:11:02;77531.78;;;-142.11;100.00
14800;BME280;7491;57.750;11.970;2022-12-18T11:13:31;77531.78;;;-142.11;100.00
14800;BME280;7491;57.750;11.970;2022-12-18T11:15:59;77539.94;;;-142.11;100.00
14800;BME280;7491;57.750;11.970;2022-12-18T11:18:28;77537.91;;;-142.11;100.00
14800;BME280;7491;57.750;11.970;2022-12-18T11:20:57;77527.69;;;-142.11;100.00
14800;BME280;7491;57.750;11.970;2022-12-18T11:23:24;77541.97;;;-142.11;100.00
14800;BME280;7491;57.750;11.970;2022-12-18T11:25:57;77531.78;;;-142.11;100.00
14800;BME280;7491;57.750;11.970;2022-12-18T11:28:27;77533.81;;;-142.11;100.00
14800;BME280;7491;57.750;11.970;2022-12-18T11:31:23;77541.97;;;-142.11;100.00
14800;BME280;7491;57.750;11.970;2022-12-18T11:33:58;77550.13;;;-142.11;100.00
14800;BME280;7491;57.750;11.970;2022-12-18T11:36:29;77566.44;;;-142.11;100.00
14800;BME280;7491;57.750;11.970;2022-12-18T11:39:02;77546.06;;;-142.11;100.00
14800;BME280;7491;57.750;11.970;2022-12-18T11:41:36;77546.06;;;-142.11;100.00
14800;BME280;7491;57.750;11.970;2022-12-18T11:44:25;77556.25;;;-142.11;100.00
14800;BME280;7491;57.750;11.970;2022-12-18T11:47:00;77556.25;;;-142.11;100.00
14800;BME280;7491;57.750;11.970;2022-12-18T11:49:32;77560.31;;;-142.11;100.00
14800;BME280;7491;57.750;11.970;2022-12-18T11:52:03;77566.44;;;-142.11;100.00
14800;BME280;7491;57.750;11.970;2022-12-18T11:54:32;77564.41;;;-142.11;100.00
14800;BME280;7491;57.750;11.970;2022-12-18T11:57:06;77558.28;;;-142.11;100.00
14800;BME280;7491;57.750;11.970;2022-12-18T11:59:39;77550.13;;;-142.11;100.00
14800;BME280;7491;57.750;11.970;2022-12-18T12:02:37;77560.31;;;-142.11;100.00
14800;BME280;7491;57.750;11.970;2022-12-18T12:05:27;77566.44;;;-142.11;100.00
14800;BME280;7491;57.750;11.970;2022-12-18T12:08:00;77564.41;;;-142.11;100.00
14800;BME280;7491;57.750;11.970;2022-12-18T12:10:40;77578.69;;;-142.11;100.00
14800;BME280;7491;57.750;11.970;2022-12-18T12:13:34;77580.72;;;-142.11;100.00
14800;BME280;7491;57.750;11.970;2022-12-18T12:16:13;77582.75;;;-142.11;100.00
14800;BME280;7491;57.750;11.970;2022-12-18T12:19:04;77576.63;;;-142.11;100.00
14800;BME280;7491;57.750;11.970;2022-12-18T12:21:39;77586.84;;;-142.11;100.00
14800;BME280;7491;57.750;11.970;2022-12-18T12:24:19;77584.78;;;-142.11;100.00
14800;BME280;7491;57.750;11.970;2022-12-18T12:26:57;77580.72;;;-142.11;100.00
14800;BME280;7491;57.750;11.970;2022-12-18T12:29:36;77574.59;;;-142.11;100.00
14800;BME280;7491;57.750;11.970;2022-12-18T12:32:15;77582.75;;;-142.11;100.00
14800;BME280;7491;57.750;11.970;2022-12-18T12:34:54;77574.59;;;-142.11;100.00
14800;BME280;7491;57.750;11.970;2022-12-18T12:37:35;77584.78;;;-142.11;100.00
14800;BME280;7491;57.750;11.970;2022-12-18T12:40:06;77586.84;;;-142.11;100.00
14800;BME280;7491;57.750;11.970;2022-12-18T12:42:35;77588.88;;;-142.11;100.00
14800;BME280;7491;57.750;11.970;2022-12-18T12:45:29;77582.75;;;-142.11;100.00
14800;BME280;7491;57.750;11.970;2022-12-18T12:48:02;77578.69;;;-142.11;100.00